Terminal Aerodrome Forecast
Issued by NWS St Louis, MO

Home | Current Version | Previous Version | Text Only | Print | Product List | Glossary On
Versions: 1 2 3 4 5 6 7 8 9 10 11 12 13 14 15 16 17 18 19 20 21 22 23 24 25 26 27 28 29 30 31
320
FTUS43 KLSX 051125
TAFSTL
TAF
KSTL 051125Z 0512/0618 17004KT 3SM BR BKN015
     FM051600 15006KT P6SM SCT015
     FM052200 13008KT P6SM BKN035
     FM060400 12004KT P6SM VCSH BKN050
     FM060600 VRB03KT P6SM VCSH OVC025=

USA.gov is the U.S. government's official web portal to all federal, state and local government web resources and services.